sensor_id;sensor_type;location;lat;lon;timestamp;P1;durP1;ratioP1;P2;durP2;ratioP2
34403;SDS011;23116;47.660;9.126;2023-04-09T00:00:44;6.50;;;5.90;;
34403;SDS011;23116;47.660;9.126;2023-04-09T00:03:11;6.60;;;6.00;;
34403;SDS011;23116;47.660;9.126;2023-04-09T00:05:39;7.05;;;6.35;;
34403;SDS011;23116;47.660;9.126;2023-04-09T00:08:07;6.63;;;6.03;;
34403;SDS011;23116;47.660;9.126;2023-04-09T00:10:34;6.47;;;5.88;;
34403;SDS011;23116;47.660;9.126;2023-04-09T00:13:02;5.88;;;5.38;;
34403;SDS011;23116;47.660;9.126;2023-04-09T00:15:33;6.03;;;5.53;;
34403;SDS011;23116;47.660;9.126;2023-04-09T00:18:06;6.38;;;5.75;;
34403;SDS011;23116;47.660;9.126;2023-04-09T00:21:07;6.10;;;5.50;;
34403;SDS011;23116;47.660;9.126;2023-04-09T00:23:41;5.70;;;5.20;;
34403;SDS011;23116;47.660;9.126;2023-04-09T00:26:30;5.80;;;5.30;;
34403;SDS011;23116;47.660;9.126;2023-04-09T00:32:06;5.75;;;5.25;;
34403;SDS011;23116;47.660;9.126;2023-04-09T00:34:51;6.22;;;5.70;;
34403;SDS011;23116;47.660;9.126;2023-04-09T00:40:12;6.43;;;5.72;;
34403;SDS011;23116;47.660;9.126;2023-04-09T00:46:09;6.75;;;6.15;;
34403;SDS011;23116;47.660;9.126;2023-04-09T00:48:46;5.45;;;4.95;;
34403;SDS011;23116;47.660;9.126;2023-04-09T00:51:16;5.65;;;5.15;;
34403;SDS011;23116;47.660;9.126;2023-04-09T00:53:59;6.03;;;5.47;;
34403;SDS011;23116;47.660;9.126;2023-04-09T00:56:38;5.60;;;5.10;;
34403;SDS011;23116;47.660;9.126;2023-04-09T00:59:18;6.07;;;5.47;;
34403;SDS011;23116;47.660;9.126;2023-04-09T01:01:51;5.97;;;5.47;;
34403;SDS011;23116;47.660;9.126;2023-04-09T01:04:18;9.63;;;5.97;;
34403;SDS011;23116;47.660;9.126;2023-04-09T01:06:49;7.13;;;6.00;;
34403;SDS011;23116;47.660;9.126;2023-04-09T01:09:22;5.63;;;5.13;;
34403;SDS011;23116;47.660;9.126;2023-04-09T01:12:17;5.90;;;5.40;;
34403;SDS011;23116;47.660;9.126;2023-04-09T01:26:58;7.95;;;7.15;;
34403;SDS011;23116;47.660;9.126;2023-04-09T01:29:32;7.65;;;6.90;;
34403;SDS011;23116;47.660;9.126;2023-04-09T01:32:06;8.30;;;7.40;;
34403;SDS011;23116;47.660;9.126;2023-04-09T01:34:34;9.43;;;8.43;;
34403;SDS011;23116;47.660;9.126;2023-04-09T01:37:02;8.85;;;7.95;;
34403;SDS011;23116;47.660;9.126;2023-04-09T01:39:46;8.38;;;7.57;;
34403;SDS011;23116;47.660;9.126;2023-04-09T01:42:13;8.43;;;7.63;;
34403;SDS011;23116;47.660;9.126;2023-04-09T01:44:41;7.63;;;6.82;;
34403;SDS011;23116;47.660;9.126;2023-04-09T01:47:10;7.80;;;7.10;;
34403;SDS011;23116;47.660;9.126;2023-04-09T01:49:38;8.10;;;7.30;;
34403;SDS011;23116;47.660;9.126;2023-04-09T01:54:44;8.82;;;8.02;;
34403;SDS011;23116;47.660;9.126;2023-04-09T01:57:11;8.27;;;7.13;;
34403;SDS011;23116;47.660;9.126;2023-04-09T01:59:38;8.52;;;7.72;;
34403;SDS011;23116;47.660;9.126;2023-04-09T02:02:08;8.00;;;7.15;;
34403;SDS011;23116;47.660;9.126;2023-04-09T02:04:44;7.40;;;6.70;;
34403;SDS011;23116;47.660;9.126;2023-04-09T02:07:17;7.18;;;6.53;;
34403;SDS011;23116;47.660;9.126;2023-04-09T02:10:04;6.68;;;6.07;;
34403;SDS011;23116;47.660;9.126;2023-04-09T02:12:35;7.10;;;6.50;;
34403;SDS011;23116;47.660;9.126;2023-04-09T02:15:03;7.13;;;6.43;;
34403;SDS011;23116;47.660;9.126;2023-04-09T02:17:32;6.78;;;6.07;;
34403;SDS011;23116;47.660;9.126;2023-04-09T02:19:59;6.53;;;5.93;;
34403;SDS011;23116;47.660;9.126;2023-04-09T02:22:26;7.47;;;6.78;;
34403;SDS011;23116;47.660;9.126;2023-04-09T02:24:54;7.35;;;6.65;;
34403;SDS011;23116;47.660;9.126;2023-04-09T02:27:25;8.15;;;7.35;;
34403;SDS011;23116;47.660;9.126;2023-04-09T02:30:02;8.02;;;7.25;;
34403;SDS011;23116;47.660;9.126;2023-04-09T02:32:32;8.05;;;7.25;;
34403;SDS011;23116;47.660;9.126;2023-04-09T02:35:03;8.75;;;7.85;;
34403;SDS011;23116;47.660;9.126;2023-04-09T02:37:39;8.18;;;7.38;;
34403;SDS011;23116;47.660;9.126;2023-04-09T02:40:13;8.05;;;7.25;;
34403;SDS011;23116;47.660;9.126;2023-04-09T02:42:43;8.13;;;7.32;;
34403;SDS011;23116;47.660;9.126;2023-04-09T02:45:14;8.88;;;7.95;;
34403;SDS011;23116;47.660;9.126;2023-04-09T02:47:41;8.50;;;7.68;;
34403;SDS011;23116;47.660;9.126;2023-04-09T02:50:12;7.57;;;6.88;;
34403;SDS011;23116;47.660;9.126;2023-04-09T02:55:22;7.80;;;7.00;;
34403;SDS011;23116;47.660;9.126;2023-04-09T02:58:02;7.22;;;6.53;;
34403;SDS011;23116;47.660;9.126;2023-04-09T03:00:30;7.32;;;6.63;;
34403;SDS011;23116;47.660;9.126;2023-04-09T03:02:57;7.03;;;6.38;;
34403;SDS011;23116;47.660;9.126;2023-04-09T03:05:24;7.35;;;6.43;;
34403;SDS011;23116;47.660;9.126;2023-04-09T03:07:52;7.03;;;6.32;;
34403;SDS011;23116;47.660;9.126;2023-04-09T03:10:20;8.38;;;7.57;;
34403;SDS011;23116;47.660;9.126;2023-04-09T03:12:47;8.52;;;7.63;;
34403;SDS011;23116;47.660;9.126;2023-04-09T03:15:14;8.27;;;7.00;;
34403;SDS011;23116;47.660;9.126;2023-04-09T03:17:41;7.22;;;6.53;;
34403;SDS011;23116;47.660;9.126;2023-04-09T03:20:08;7.35;;;6.65;;
34403;SDS011;23116;47.660;9.126;2023-04-09T03:22:36;7.95;;;7.15;;
34403;SDS011;23116;47.660;9.126;2023-04-09T03:25:04;7.85;;;7.05;;
34403;SDS011;23116;47.660;9.126;2023-04-09T03:27:31;7.72;;;6.10;;
34403;SDS011;23116;47.660;9.126;2023-04-09T03:29:58;7.75;;;7.05;;
34403;SDS011;23116;47.660;9.126;2023-04-09T03:32:26;7.10;;;6.40;;
34403;SDS011;23116;47.660;9.126;2023-04-09T03:34:53;7.53;;;6.82;;
34403;SDS011;23116;47.660;9.126;2023-04-09T03:37:20;9.40;;;7.93;;
34403;SDS011;23116;47.660;9.126;2023-04-09T03:39:47;9.52;;;8.45;;
34403;SDS011;23116;47.660;9.126;2023-04-09T03:42:14;10.65;;;9.55;;
34403;SDS011;23116;47.660;9.126;2023-04-09T03:44:41;10.18;;;8.93;;
34403;SDS011;23116;47.660;9.126;2023-04-09T03:47:09;9.35;;;8.45;;
34403;SDS011;23116;47.660;9.126;2023-04-09T03:49:36;9.88;;;8.88;;
34403;SDS011;23116;47.660;9.126;2023-04-09T03:52:03;9.05;;;7.97;;
34403;SDS011;23116;47.660;9.126;2023-04-09T03:54:32;8.90;;;8.00;;
34403;SDS011;23116;47.660;9.126;2023-04-09T03:56:59;8.35;;;7.55;;
34403;SDS011;23116;47.660;9.126;2023-04-09T03:59:27;9.10;;;8.20;;
34403;SDS011;23116;47.660;9.126;2023-04-09T04:01:55;9.55;;;8.55;;
34403;SDS011;23116;47.660;9.126;2023-04-09T04:04:22;9.68;;;8.68;;
34403;SDS011;23116;47.660;9.126;2023-04-09T04:06:49;9.57;;;8.57;;
34403;SDS011;23116;47.660;9.126;2023-04-09T04:09:16;9.65;;;8.65;;
34403;SDS011;23116;47.660;9.126;2023-04-09T04:11:49;10.02;;;8.98;;
34403;SDS011;23116;47.660;9.126;2023-04-09T04:14:17;9.73;;;8.70;;
34403;SDS011;23116;47.660;9.126;2023-04-09T04:16:53;8.95;;;7.88;;
34403;SDS011;23116;47.660;9.126;2023-04-09T04:19:41;8.68;;;7.82;;
34403;SDS011;23116;47.660;9.126;2023-04-09T04:22:20;8.13;;;6.95;;
34403;SDS011;23116;47.660;9.126;2023-04-09T04:24:54;8.48;;;7.60;;
34403;SDS011;23116;47.660;9.126;2023-04-09T04:27:21;8.32;;;7.47;;
34403;SDS011;23116;47.660;9.126;2023-04-09T04:29:49;9.43;;;8.23;;
34403;SDS011;23116;47.660;9.126;2023-04-09T04:32:28;9.35;;;8.35;;
34403;SDS011;23116;47.660;9.126;2023-04-09T04:34:58;9.13;;;7.95;;
34403;SDS011;23116;47.660;9.126;2023-04-09T04:37:31;9.68;;;8.27;;
34403;SDS011;23116;47.660;9.126;2023-04-09T04:40:07;11.25;;;9.52;;
34403;SDS011;23116;47.660;9.126;2023-04-09T04:42:43;9.48;;;8.48;;
34403;SDS011;23116;47.660;9.126;2023-04-09T04:45:20;12.07;;;9.52;;
34403;SDS011;23116;47.660;9.126;2023-04-09T04:47:47;9.32;;;8.32;;
34403;SDS011;23116;47.660;9.126;2023-04-09T04:50:15;9.40;;;8.40;;
34403;SDS011;23116;47.660;9.126;2023-04-09T04:52:51;8.48;;;7.13;;
34403;SDS011;23116;47.660;9.126;2023-04-09T04:55:21;8.55;;;6.70;;
34403;SDS011;23116;47.660;9.126;2023-04-09T04:57:52;9.73;;;8.35;;
34403;SDS011;23116;47.660;9.126;2023-04-09T05:00:28;8.57;;;7.15;;
34403;SDS011;23116;47.660;9.126;2023-04-09T05:02:57;8.38;;;7.47;;
34403;SDS011;23116;47.660;9.126;2023-04-09T05:05:24;7.93;;;7.13;;
34403;SDS011;23116;47.660;9.126;2023-04-09T05:07:51;9.13;;;8.10;;
34403;SDS011;23116;47.660;9.126;2023-04-09T05:12:55;6.72;;;6.00;;
34403;SDS011;23116;47.660;9.126;2023-04-09T05:15:25;7.10;;;6.40;;
34403;SDS011;23116;47.660;9.126;2023-04-09T05:17:55;7.22;;;6.53;;
34403;SDS011;23116;47.660;9.126;2023-04-09T05:20:49;5.45;;;4.93;;
34403;SDS011;23116;47.660;9.126;2023-04-09T05:28:38;7.55;;;6.80;;
34403;SDS011;23116;47.660;9.126;2023-04-09T05:31:08;7.50;;;6.80;;
34403;SDS011;23116;47.660;9.126;2023-04-09T05:33:37;6.65;;;5.47;;
34403;SDS011;23116;47.660;9.126;2023-04-09T05:36:05;6.93;;;6.20;;
34403;SDS011;23116;47.660;9.126;2023-04-09T05:38:32;6.68;;;5.95;;
34403;SDS011;23116;47.660;9.126;2023-04-09T05:41:02;6.78;;;6.15;;
34403;SDS011;23116;47.660;9.126;2023-04-09T05:43:29;6.82;;;6.13;;
34403;SDS011;23116;47.660;9.126;2023-04-09T05:48:46;6.72;;;6.03;;
34403;SDS011;23116;47.660;9.126;2023-04-09T05:51:13;5.45;;;4.95;;
34403;SDS011;23116;47.660;9.126;2023-04-09T05:53:50;7.53;;;6.68;;
34403;SDS011;23116;47.660;9.126;2023-04-09T05:56:18;7.55;;;6.78;;
34403;SDS011;23116;47.660;9.126;2023-04-09T05:58:48;7.60;;;6.80;;
34403;SDS011;23116;47.660;9.126;2023-04-09T06:01:24;7.60;;;6.60;;
34403;SDS011;23116;47.660;9.126;2023-04-09T06:04:01;7.00;;;6.30;;
34403;SDS011;23116;47.660;9.126;2023-04-09T06:06:28;7.32;;;6.60;;
34403;SDS011;23116;47.660;9.126;2023-04-09T06:08:58;7.43;;;6.68;;
34403;SDS011;23116;47.660;9.126;2023-04-09T06:11:26;7.43;;;6.63;;
34403;SDS011;23116;47.660;9.126;2023-04-09T06:13:54;7.72;;;6.93;;
34403;SDS011;23116;47.660;9.126;2023-04-09T06:19:05;7.70;;;6.90;;
34403;SDS011;23116;47.660;9.126;2023-04-09T06:24:26;8.13;;;7.28;;
34403;SDS011;23116;47.660;9.126;2023-04-09T06:27:10;7.15;;;6.45;;
34403;SDS011;23116;47.660;9.126;2023-04-09T06:29:45;7.80;;;7.00;;
34403;SDS011;23116;47.660;9.126;2023-04-09T06:32:36;9.38;;;8.48;;
34403;SDS011;23116;47.660;9.126;2023-04-09T06:35:10;9.55;;;8.13;;
34403;SDS011;23116;47.660;9.126;2023-04-09T06:37:40;9.35;;;8.02;;
34403;SDS011;23116;47.660;9.126;2023-04-09T06:40:11;8.52;;;7.72;;
34403;SDS011;23116;47.660;9.126;2023-04-09T06:42:48;9.45;;;8.13;;
34403;SDS011;23116;47.660;9.126;2023-04-09T06:45:16;8.85;;;7.95;;
34403;SDS011;23116;47.660;9.126;2023-04-09T06:48:04;8.98;;;8.18;;
34403;SDS011;23116;47.660;9.126;2023-04-09T06:50:32;8.50;;;7.70;;
34403;SDS011;23116;47.660;9.126;2023-04-09T06:53:17;7.85;;;7.07;;
34403;SDS011;23116;47.660;9.126;2023-04-09T06:55:44;8.48;;;7.63;;
34403;SDS011;23116;47.660;9.126;2023-04-09T06:58:12;9.60;;;8.60;;
34403;SDS011;23116;47.660;9.126;2023-04-09T07:00:40;8.00;;;7.25;;
34403;SDS011;23116;47.660;9.126;2023-04-09T07:03:07;8.90;;;8.00;;
34403;SDS011;23116;47.660;9.126;2023-04-09T07:05:38;7.75;;;6.80;;
34403;SDS011;23116;47.660;9.126;2023-04-09T07:08:05;9.50;;;8.50;;
34403;SDS011;23116;47.660;9.126;2023-04-09T07:13:10;8.80;;;7.90;;
34403;SDS011;23116;47.660;9.126;2023-04-09T07:15:45;8.45;;;7.60;;
34403;SDS011;23116;47.660;9.126;2023-04-09T07:18:15;10.07;;;8.43;;
34403;SDS011;23116;47.660;9.126;2023-04-09T07:20:44;9.55;;;8.45;;
34403;SDS011;23116;47.660;9.126;2023-04-09T07:23:22;10.10;;;9.10;;
34403;SDS011;23116;47.660;9.126;2023-04-09T07:25:52;10.70;;;9.70;;
34403;SDS011;23116;47.660;9.126;2023-04-09T07:28:35;10.33;;;9.30;;
34403;SDS011;23116;47.660;9.126;2023-04-09T07:31:02;10.60;;;9.35;;
34403;SDS011;23116;47.660;9.126;2023-04-09T07:33:29;11.07;;;9.93;;
34403;SDS011;23116;47.660;9.126;2023-04-09T07:35:56;9.00;;;8.13;;
34403;SDS011;23116;47.660;9.126;2023-04-09T07:38:23;9.60;;;8.60;;
34403;SDS011;23116;47.660;9.126;2023-04-09T07:40:51;11.13;;;10.00;;
34403;SDS011;23116;47.660;9.126;2023-04-09T07:43:19;9.65;;;8.70;;
34403;SDS011;23116;47.660;9.126;2023-04-09T07:45:49;10.02;;;8.98;;
34403;SDS011;23116;47.660;9.126;2023-04-09T07:48:16;9.98;;;8.95;;
34403;SDS011;23116;47.660;9.126;2023-04-09T07:50:46;9.63;;;8.63;;
34403;SDS011;23116;47.660;9.126;2023-04-09T07:53:13;10.23;;;9.23;;
34403;SDS011;23116;47.660;9.126;2023-04-09T07:55:41;10.35;;;9.23;;
34403;SDS011;23116;47.660;9.126;2023-04-09T07:58:08;9.95;;;8.95;;
34403;SDS011;23116;47.660;9.126;2023-04-09T08:00:35;8.93;;;8.02;;
34403;SDS011;23116;47.660;9.126;2023-04-09T08:03:02;9.38;;;8.38;;
34403;SDS011;23116;47.660;9.126;2023-04-09T08:05:30;9.73;;;8.73;;
34403;SDS011;23116;47.660;9.126;2023-04-09T08:07:57;9.43;;;8.45;;
34403;SDS011;23116;47.660;9.126;2023-04-09T08:10:24;10.68;;;9.10;;
34403;SDS011;23116;47.660;9.126;2023-04-09T08:12:51;9.60;;;8.63;;
34403;SDS011;23116;47.660;9.126;2023-04-09T08:15:19;10.10;;;9.10;;
34403;SDS011;23116;47.660;9.126;2023-04-09T08:17:46;10.65;;;9.55;;
34403;SDS011;23116;47.660;9.126;2023-04-09T08:21:02;10.70;;;9.68;;
34403;SDS011;23116;47.660;9.126;2023-04-09T08:23:12;9.00;;;8.10;;
34403;SDS011;23116;47.660;9.126;2023-04-09T08:25:42;8.73;;;7.78;;
34403;SDS011;23116;47.660;9.126;2023-04-09T08:28:16;9.77;;;8.73;;
34403;SDS011;23116;47.660;9.126;2023-04-09T08:33:54;10.85;;;9.75;;
34403;SDS011;23116;47.660;9.126;2023-04-09T08:36:45;9.80;;;8.80;;
34403;SDS011;23116;47.660;9.126;2023-04-09T08:39:16;9.60;;;8.60;;
34403;SDS011;23116;47.660;9.126;2023-04-09T08:42:02;10.02;;;8.80;;
34403;SDS011;23116;47.660;9.126;2023-04-09T08:44:35;10.15;;;8.75;;
34403;SDS011;23116;47.660;9.126;2023-04-09T08:47:09;8.85;;;7.95;;
34403;SDS011;23116;47.660;9.126;2023-04-09T08:49:43;9.60;;;8.70;;
34403;SDS011;23116;47.660;9.126;2023-04-09T08:55:03;10.38;;;8.15;;
34403;SDS011;23116;47.660;9.126;2023-04-09T08:57:38;10.60;;;9.50;;
34403;SDS011;23116;47.660;9.126;2023-04-09T09:00:14;8.35;;;7.47;;
34403;SDS011;23116;47.660;9.126;2023-04-09T09:05:40;9.30;;;8.40;;
34403;SDS011;23116;47.660;9.126;2023-04-09T09:08:13;9.70;;;8.70;;
34403;SDS011;23116;47.660;9.126;2023-04-09T09:10:49;10.63;;;9.57;;
34403;SDS011;23116;47.660;9.126;2023-04-09T09:13:26;9.63;;;8.68;;
34403;SDS011;23116;47.660;9.126;2023-04-09T09:15:54;8.25;;;7.45;;
34403;SDS011;23116;47.660;9.126;2023-04-09T09:21:13;9.20;;;8.30;;
34403;SDS011;23116;47.660;9.126;2023-04-09T09:23:43;8.85;;;7.95;;
34403;SDS011;23116;47.660;9.126;2023-04-09T09:26:25;8.10;;;7.05;;
34403;SDS011;23116;47.660;9.126;2023-04-09T09:28:54;8.17;;;7.37;;
34403;SDS011;23116;47.660;9.126;2023-04-09T09:31:23;9.45;;;8.45;;
34403;SDS011;23116;47.660;9.126;2023-04-09T09:33:51;8.93;;;8.02;;
34403;SDS011;23116;47.660;9.126;2023-04-09T09:36:31;8.38;;;7.53;;
34403;SDS011;23116;47.660;9.126;2023-04-09T09:39:00;8.57;;;7.78;;
34403;SDS011;23116;47.660;9.126;2023-04-09T09:41:29;8.63;;;7.70;;
34403;SDS011;23116;47.660;9.126;2023-04-09T09:43:56;9.07;;;8.20;;
34403;SDS011;23116;47.660;9.126;2023-04-09T09:46:24;8.27;;;7.47;;
34403;SDS011;23116;47.660;9.126;2023-04-09T09:48:52;8.32;;;7.53;;
34403;SDS011;23116;47.660;9.126;2023-04-09T09:51:21;8.27;;;7.47;;
34403;SDS011;23116;47.660;9.126;2023-04-09T09:53:53;9.52;;;8.57;;
34403;SDS011;23116;47.660;9.126;2023-04-09T09:56:23;8.95;;;8.05;;
34403;SDS011;23116;47.660;9.126;2023-04-09T10:01:51;8.93;;;8.02;;
34403;SDS011;23116;47.660;9.126;2023-04-09T10:04:28;8.93;;;8.10;;
34403;SDS011;23116;47.660;9.126;2023-04-09T10:06:58;8.00;;;7.20;;
34403;SDS011;23116;47.660;9.126;2023-04-09T10:09:29;7.93;;;7.13;;
34403;SDS011;23116;47.660;9.126;2023-04-09T10:11:59;8.93;;;8.13;;
34403;SDS011;23116;47.660;9.126;2023-04-09T10:14:29;9.65;;;8.65;;
34403;SDS011;23116;47.660;9.126;2023-04-09T10:16:56;8.75;;;7.95;;
34403;SDS011;23116;47.660;9.126;2023-04-09T10:19:27;8.73;;;7.82;;
34403;SDS011;23116;47.660;9.126;2023-04-09T10:22:04;8.45;;;7.47;;
34403;SDS011;23116;47.660;9.126;2023-04-09T10:24:59;7.70;;;6.80;;
34403;SDS011;23116;47.660;9.126;2023-04-09T10:30:05;7.57;;;6.85;;
34403;SDS011;23116;47.660;9.126;2023-04-09T10:32:35;8.68;;;7.82;;
34403;SDS011;23116;47.660;9.126;2023-04-09T10:35:04;7.97;;;7.18;;
34403;SDS011;23116;47.660;9.126;2023-04-09T10:37:33;8.60;;;7.70;;
34403;SDS011;23116;47.660;9.126;2023-04-09T10:40:04;6.97;;;6.28;;
34403;SDS011;23116;47.660;9.126;2023-04-09T10:42:42;6.65;;;6.05;;
34403;SDS011;23116;47.660;9.126;2023-04-09T10:45:22;6.82;;;6.20;;
34403;SDS011;23116;47.660;9.126;2023-04-09T10:48:02;7.65;;;6.85;;
34403;SDS011;23116;47.660;9.126;2023-04-09T10:50:31;7.13;;;6.43;;
34403;SDS011;23116;47.660;9.126;2023-04-09T10:53:01;6.72;;;6.00;;
34403;SDS011;23116;47.660;9.126;2023-04-09T10:55:40;7.10;;;6.40;;
34403;SDS011;23116;47.660;9.126;2023-04-09T10:58:12;7.05;;;6.35;;
34403;SDS011;23116;47.660;9.126;2023-04-09T11:00:40;8.35;;;7.55;;
34403;SDS011;23116;47.660;9.126;2023-04-09T11:05:59;7.85;;;7.10;;
34403;SDS011;23116;47.660;9.126;2023-04-09T11:08:31;7.68;;;6.97;;
34403;SDS011;23116;47.660;9.126;2023-04-09T11:10:59;7.93;;;7.13;;
34403;SDS011;23116;47.660;9.126;2023-04-09T11:13:27;7.50;;;6.72;;
34403;SDS011;23116;47.660;9.126;2023-04-09T11:15:55;7.10;;;6.40;;
34403;SDS011;23116;47.660;9.126;2023-04-09T11:18:25;6.75;;;6.05;;
34403;SDS011;23116;47.660;9.126;2023-04-09T11:20:55;6.10;;;5.60;;
34403;SDS011;23116;47.660;9.126;2023-04-09T11:23:24;5.55;;;5.03;;
34403;SDS011;23116;47.660;9.126;2023-04-09T11:25:52;6.05;;;5.45;;
34403;SDS011;23116;47.660;9.126;2023-04-09T11:28:20;6.18;;;5.57;;
34403;SDS011;23116;47.660;9.126;2023-04-09T11:30:51;6.15;;;5.55;;
34403;SDS011;23116;47.660;9.126;2023-04-09T11:33:19;6.05;;;5.45;;
34403;SDS011;23116;47.660;9.126;2023-04-09T11:35:46;5.47;;;4.97;;
34403;SDS011;23116;47.660;9.126;2023-04-09T11:38:15;6.00;;;5.40;;
34403;SDS011;23116;47.660;9.126;2023-04-09T11:40:42;5.45;;;4.95;;
34403;SDS011;23116;47.660;9.126;2023-04-09T11:43:13;4.70;;;4.30;;
34403;SDS011;23116;47.660;9.126;2023-04-09T11:45:40;4.15;;;3.78;;
34403;SDS011;23116;47.660;9.126;2023-04-09T11:48:08;6.15;;;5.55;;
34403;SDS011;23116;47.660;9.126;2023-04-09T11:50:36;5.93;;;5.35;;
34403;SDS011;23116;47.660;9.126;2023-04-09T11:55:51;5.93;;;5.32;;
34403;SDS011;23116;47.660;9.126;2023-04-09T11:58:22;6.05;;;5.47;;
34403;SDS011;23116;47.660;9.126;2023-04-09T12:00:54;4.82;;;4.40;;
34403;SDS011;23116;47.660;9.126;2023-04-09T12:03:27;4.90;;;4.50;;
34403;SDS011;23116;47.660;9.126;2023-04-09T12:05:56;5.28;;;4.80;;
34403;SDS011;23116;47.660;9.126;2023-04-09T12:08:26;4.30;;;3.95;;
34403;SDS011;23116;47.660;9.126;2023-04-09T12:10:55;4.28;;;3.92;;
34403;SDS011;23116;47.660;9.126;2023-04-09T12:13:31;4.85;;;4.45;;
34403;SDS011;23116;47.660;9.126;2023-04-09T12:18:43;4.82;;;4.43;;
34403;SDS011;23116;47.660;9.126;2023-04-09T12:24:37;4.43;;;4.00;;
34403;SDS011;23116;47.660;9.126;2023-04-09T12:27:17;4.53;;;4.13;;
34403;SDS011;23116;47.660;9.126;2023-04-09T12:29:54;3.97;;;3.58;;
34403;SDS011;23116;47.660;9.126;2023-04-09T12:32:34;4.38;;;3.97;;
34403;SDS011;23116;47.660;9.126;2023-04-09T12:35:17;3.80;;;3.50;;
34403;SDS011;23116;47.660;9.126;2023-04-09T12:37:52;3.40;;;3.10;;
34403;SDS011;23116;47.660;9.126;2023-04-09T12:40:38;3.75;;;3.42;;
34403;SDS011;23116;47.660;9.126;2023-04-09T12:46:20;3.20;;;2.95;;
34403;SDS011;23116;47.660;9.126;2023-04-09T12:49:08;3.25;;;2.97;;
34403;SDS011;23116;47.660;9.126;2023-04-09T12:51:39;3.05;;;2.72;;
34403;SDS011;23116;47.660;9.126;2023-04-09T12:54:50;3.08;;;2.78;;
34403;SDS011;23116;47.660;9.126;2023-04-09T12:57:10;2.78;;;2.55;;
34403;SDS011;23116;47.660;9.126;2023-04-09T12:59:38;2.65;;;2.45;;
34403;SDS011;23116;47.660;9.126;2023-04-09T13:02:11;2.60;;;2.40;;
34403;SDS011;23116;47.660;9.126;2023-04-09T13:04:39;2.55;;;2.35;;
34403;SDS011;23116;47.660;9.126;2023-04-09T13:07:06;2.53;;;2.33;;
34403;SDS011;23116;47.660;9.126;2023-04-09T13:09:34;2.60;;;2.40;;
34403;SDS011;23116;47.660;9.126;2023-04-09T13:12:01;2.50;;;2.30;;
34403;SDS011;23116;47.660;9.126;2023-04-09T13:14:28;2.15;;;2.05;;
34403;SDS011;23116;47.660;9.126;2023-04-09T13:16:55;2.40;;;2.20;;
34403;SDS011;23116;47.660;9.126;2023-04-09T13:19:23;2.30;;;2.10;;
34403;SDS011;23116;47.660;9.126;2023-04-09T13:21:50;2.42;;;2.22;;
34403;SDS011;23116;47.660;9.126;2023-04-09T13:24:17;2.25;;;2.05;;
34403;SDS011;23116;47.660;9.126;2023-04-09T13:26:44;2.38;;;2.17;;
34403;SDS011;23116;47.660;9.126;2023-04-09T13:29:12;1.92;;;1.80;;
34403;SDS011;23116;47.660;9.126;2023-04-09T13:31:39;2.20;;;2.00;;
34403;SDS011;23116;47.660;9.126;2023-04-09T13:34:06;2.78;;;2.35;;
34403;SDS011;23116;47.660;9.126;2023-04-09T13:36:33;2.05;;;1.95;;
34403;SDS011;23116;47.660;9.126;2023-04-09T13:39:00;2.00;;;1.90;;
34403;SDS011;23116;47.660;9.126;2023-04-09T13:41:31;2.20;;;2.00;;
34403;SDS011;23116;47.660;9.126;2023-04-09T13:43:59;2.47;;;2.28;;
34403;SDS011;23116;47.660;9.126;2023-04-09T13:46:26;2.47;;;2.28;;
34403;SDS011;23116;47.660;9.126;2023-04-09T13:48:54;2.30;;;2.10;;
34403;SDS011;23116;47.660;9.126;2023-04-09T13:51:21;2.30;;;2.10;;
34403;SDS011;23116;47.660;9.126;2023-04-09T13:53:49;2.22;;;2.03;;
34403;SDS011;23116;47.660;9.126;2023-04-09T13:56:17;1.98;;;1.88;;
34403;SDS011;23116;47.660;9.126;2023-04-09T13:58:45;2.30;;;2.10;;
34403;SDS011;23116;47.660;9.126;2023-04-09T14:01:12;2.10;;;2.00;;
34403;SDS011;23116;47.660;9.126;2023-04-09T14:03:39;1.80;;;1.70;;
34403;SDS011;23116;47.660;9.126;2023-04-09T14:06:07;2.30;;;2.10;;
34403;SDS011;23116;47.660;9.126;2023-04-09T14:08:34;1.75;;;1.65;;
34403;SDS011;23116;47.660;9.126;2023-04-09T14:11:05;1.50;;;1.40;;
34403;SDS011;23116;47.660;9.126;2023-04-09T14:13:32;1.40;;;1.30;;
34403;SDS011;23116;47.660;9.126;2023-04-09T14:15:59;1.42;;;1.33;;
34403;SDS011;23116;47.660;9.126;2023-04-09T14:18:26;1.70;;;1.60;;
34403;SDS011;23116;47.660;9.126;2023-04-09T14:20:53;1.30;;;1.20;;
34403;SDS011;23116;47.660;9.126;2023-04-09T14:23:41;1.58;;;1.48;;
34403;SDS011;23116;47.660;9.126;2023-04-09T14:26:13;1.80;;;1.70;;
34403;SDS011;23116;47.660;9.126;2023-04-09T14:28:44;1.65;;;1.55;;
34403;SDS011;23116;47.660;9.126;2023-04-09T14:31:17;1.10;;;1.10;;
34403;SDS011;23116;47.660;9.126;2023-04-09T14:34:20;1.33;;;1.23;;
34403;SDS011;23116;47.660;9.126;2023-04-09T14:36:57;1.25;;;1.15;;
34403;SDS011;23116;47.660;9.126;2023-04-09T14:39:27;1.40;;;1.30;;
34403;SDS011;23116;47.660;9.126;2023-04-09T14:41:58;1.10;;;1.10;;
34403;SDS011;23116;47.660;9.126;2023-04-09T14:44:28;1.30;;;1.20;;
34403;SDS011;23116;47.660;9.126;2023-04-09T14:47:17;1.45;;;1.35;;
34403;SDS011;23116;47.660;9.126;2023-04-09T14:52:20;1.13;;;1.13;;
34403;SDS011;23116;47.660;9.126;2023-04-09T14:54:47;1.40;;;1.30;;
34403;SDS011;23116;47.660;9.126;2023-04-09T14:57:21;1.50;;;1.40;;
34403;SDS011;23116;47.660;9.126;2023-04-09T15:00:07;1.27;;;1.17;;
34403;SDS011;23116;47.660;9.126;2023-04-09T15:02:36;1.00;;;1.00;;
34403;SDS011;23116;47.660;9.126;2023-04-09T15:05:03;1.15;;;1.15;;
34403;SDS011;23116;47.660;9.126;2023-04-09T15:07:53;1.17;;;1.10;;
34403;SDS011;23116;47.660;9.126;2023-04-09T15:10:21;1.40;;;1.30;;
34403;SDS011;23116;47.660;9.126;2023-04-09T15:12:48;1.23;;;1.15;;
34403;SDS011;23116;47.660;9.126;2023-04-09T15:15:15;1.10;;;1.10;;
34403;SDS011;23116;47.660;9.126;2023-04-09T15:20:20;0.90;;;0.90;;
34403;SDS011;23116;47.660;9.126;2023-04-09T15:22:47;0.70;;;0.70;;
34403;SDS011;23116;47.660;9.126;2023-04-09T15:25:15;0.70;;;0.70;;
34403;SDS011;23116;47.660;9.126;2023-04-09T15:27:42;1.00;;;1.00;;
34403;SDS011;23116;47.660;9.126;2023-04-09T15:30:10;0.90;;;0.90;;
34403;SDS011;23116;47.660;9.126;2023-04-09T15:32:38;0.93;;;0.93;;
34403;SDS011;23116;47.660;9.126;2023-04-09T15:35:05;0.80;;;0.80;;
34403;SDS011;23116;47.660;9.126;2023-04-09T15:37:32;1.00;;;1.00;;
34403;SDS011;23116;47.660;9.126;2023-04-09T15:40:00;1.23;;;1.13;;
34403;SDS011;23116;47.660;9.126;2023-04-09T15:42:28;0.85;;;0.85;;
34403;SDS011;23116;47.660;9.126;2023-04-09T15:44:55;1.85;;;1.00;;
34403;SDS011;23116;47.660;9.126;2023-04-09T15:47:22;0.85;;;0.85;;
34403;SDS011;23116;47.660;9.126;2023-04-09T15:49:49;0.70;;;0.70;;
34403;SDS011;23116;47.660;9.126;2023-04-09T15:52:16;0.80;;;0.80;;
34403;SDS011;23116;47.660;9.126;2023-04-09T15:54:44;0.60;;;0.60;;
34403;SDS011;23116;47.660;9.126;2023-04-09T15:57:11;0.68;;;0.68;;
34403;SDS011;23116;47.660;9.126;2023-04-09T15:59:38;0.63;;;0.63;;
34403;SDS011;23116;47.660;9.126;2023-04-09T16:02:05;0.60;;;0.60;;
34403;SDS011;23116;47.660;9.126;2023-04-09T16:04:32;0.80;;;0.80;;
34403;SDS011;23116;47.660;9.126;2023-04-09T16:07:00;0.90;;;0.90;;
34403;SDS011;23116;47.660;9.126;2023-04-09T16:09:28;0.80;;;0.80;;
34403;SDS011;23116;47.660;9.126;2023-04-09T16:11:55;0.68;;;0.68;;
34403;SDS011;23116;47.660;9.126;2023-04-09T16:14:22;0.80;;;0.80;;
34403;SDS011;23116;47.660;9.126;2023-04-09T16:17:05;0.77;;;0.77;;
34403;SDS011;23116;47.660;9.126;2023-04-09T16:19:48;0.93;;;0.93;;
34403;SDS011;23116;47.660;9.126;2023-04-09T16:22:22;2.70;;;0.75;;
34403;SDS011;23116;47.660;9.126;2023-04-09T16:27:51;0.80;;;0.80;;
34403;SDS011;23116;47.660;9.126;2023-04-09T16:30:22;0.82;;;0.82;;
34403;SDS011;23116;47.660;9.126;2023-04-09T16:32:55;0.93;;;0.70;;
34403;SDS011;23116;47.660;9.126;2023-04-09T16:35:35;0.80;;;0.80;;